Pagrindinis puslapis
METAR-TAF:

METAR-TAF

Oro uostai :

Capo Bellavista

Tortoli, Italija

platuma: 39-56N, ilguma: 009-43E, Aukštis: 138 m

Dabartinis oras

Ataskaita buvo paskelbta 47 minutes, ne 18:55 UTC
Vėjas 12 kt iš Rytų
Temperatūra 16°C
Drėgmė 77%
Slėgis 1013 hPa
Matomumas 10 km arba daugiau
Su prošvaistėmis ne aukštis 2500 ft

METAR: LIEB 301855Z 09012KT 9999 BKN025 16/12 Q1013 RMK BKN QUK 3 QUL 1 NE VIS MAR 20 KM MON SW CIME INC VIS MIN 9999

Laikas: 21:42 (19:42 UTC)


TAF: trūkstamas

Orai ataskaitas ir orų prognozės (METAR, TAF).

turimą stotys yra geltonos ir raudonos taškus žemėlapyje.

Perkelti pele per norėdami pamatyti stoties vardą.

Tada spustelėkite, norėdami matyti oro stebėjimo ir prognozės.

Norėdami pakeisti žemėlapį: spustelėkite ant žalios mygtukų su juodo kryžiaus žemyn,; žalią mygtuką su brūkšneliu, jei norite nutolinti; arba žalių rodyklių gretimoms žemėlapius.


METAR-TAF: